Terminal Aerodrome Forecast
Issued by NWS

Home | Current Version | Previous Version | Text Only | Print | Product List | Glossary On
Versions: 1 2 3 4 5 6 7 8 9 10 11 12 13 14
138
FTUS42 KMLB 141136
TAFSFB
TAF
KSFB 141136Z 1412/1512 34005KT P6SM SKC
     FM141500 05010KT P6SM SCT035
     FM141700 09011KT P6SM BKN040
     FM150100 11004KT P6SM BKN040=

USA.gov is the U.S. government's official web portal to all federal, state and local government web resources and services.